Time;durP1;ratioP1;P1;durP2;ratioP2;P2;SDS_P1;SDS_P2;PMS_P1;PMS_P2;Temp;Humidity;BMP_temperature;BMP_pressure;BME280_temperature;BME280_humidity;BME280_pressure;Samples;Min_cycle;Max_cycle;Signal;HPM_P1;HPM_P2
2022/01/21 00:05:01;;;;;;;0.20;0.00;;;7.10;99.90;;;;;;25583516;23;20222;-72
2022/01/21 00:15:10;;;;;;;0.20;0.10;;;7.00;99.90;;;;;;25588932;23;20273;-65
2022/01/21 00:35:36;;;;;;;0.40;0.40;;;7.00;99.90;;;;;;25586855;23;20272;-65
2022/01/21 00:45:40;;;;;;;0.30;0.30;;;7.10;99.90;;;;;;25586734;23;20250;-66
2022/01/21 00:55:45;;;;;;;4.37;1.07;;;6.90;99.90;;;;;;25588070;23;20202;-66
2022/01/21 01:05:51;;;;;;;0.20;0.10;;;6.60;99.90;;;;;;25587944;23;20190;-65
2022/01/21 01:36:43;;;;;;;0.20;0.10;;;6.50;99.90;;;;;;25586006;23;20268;-65
2022/01/21 01:57:10;;;;;;;0.20;0.20;;;6.40;99.90;;;;;;25585223;23;20205;-74
2022/01/21 02:07:14;;;;;;;0.20;0.10;;;6.40;99.90;;;;;;25585572;23;20196;-73
2022/01/21 02:21:29;;;;;;;0.20;0.10;;;6.40;99.90;;;;;;25583879;23;20225;-75
2022/01/21 02:27:58;;;;;;;0.20;0.10;;;6.30;99.90;;;;;;25583484;23;20201;-75
2022/01/21 02:38:01;;;;;;;0.20;0.10;;;6.40;99.90;;;;;;25581300;23;20221;-75
2022/01/21 02:48:09;;;;;;;0.20;0.00;;;6.30;99.90;;;;;;25583148;23;20175;-76
2022/01/21 02:58:13;;;;;;;0.20;0.10;;;6.20;99.90;;;;;;25583725;23;20600;-77
2022/01/21 03:08:19;;;;;;;0.20;0.10;;;6.10;99.90;;;;;;25592408;23;20193;-78
2022/01/21 03:18:22;;;;;;;1.67;1.57;;;6.10;99.90;;;;;;25590637;23;20219;-80
2022/01/21 03:28:30;;;;;;;0.20;0.07;;;6.30;99.90;;;;;;25588641;23;20261;-78
2022/01/21 03:38:34;;;;;;;0.20;0.10;;;6.20;99.90;;;;;;25589917;23;20213;-78
2022/01/21 03:48:40;;;;;;;0.20;0.00;;;6.20;99.90;;;;;;25590995;23;20177;-79
2022/01/21 03:58:44;;;;;;;0.20;0.10;;;6.30;99.90;;;;;;25588789;23;20214;-74
2022/01/21 04:08:49;;;;;;;0.20;0.00;;;6.30;99.90;;;;;;25588823;23;20233;-66
2022/01/21 04:18:54;;;;;;;0.20;0.10;;;6.30;99.90;;;;;;25589152;23;20597;-65
2022/01/21 04:28:59;;;;;;;0.20;0.10;;;6.40;99.90;;;;;;25587762;23;20244;-75
2022/01/21 04:39:06;;;;;;;0.20;0.10;;;6.40;99.90;;;;;;25586560;23;20244;-73
2022/01/21 04:49:11;;;;;;;2.47;1.97;;;6.50;99.90;;;;;;25588220;23;20298;-74
2022/01/21 04:59:15;;;;;;;0.20;0.10;;;6.50;99.90;;;;;;25585014;23;20288;-76
2022/01/21 05:09:23;;;;;;;0.20;0.13;;;6.50;99.90;;;;;;25589098;23;20448;-76
2022/01/21 05:19:27;;;;;;;0.77;0.77;;;6.40;99.90;;;;;;25587468;23;20221;-65
2022/01/21 05:29:34;;;;;;;0.20;0.00;;;6.40;99.90;;;;;;25586133;23;20170;-67
2022/01/21 05:39:37;;;;;;;0.20;0.00;;;6.60;99.90;;;;;;25584405;23;20501;-73
2022/01/21 05:49:42;;;;;;;0.20;0.00;;;6.70;99.90;;;;;;25584993;23;20604;-73
2022/01/21 05:59:49;;;;;;;0.20;0.10;;;6.60;99.90;;;;;;25578652;23;20213;-72
2022/01/21 06:09:54;;;;;;;0.20;0.10;;;6.60;99.90;;;;;;25585837;23;20170;-73
2022/01/21 06:19:59;;;;;;;0.20;0.03;;;6.50;99.90;;;;;;25581567;23;20198;-72
2022/01/21 06:30:06;;;;;;;0.20;0.10;;;6.50;99.90;;;;;;25584228;23;20548;-72
2022/01/21 06:40:11;;;;;;;0.20;0.10;;;6.60;99.90;;;;;;25589730;23;20220;-72
2022/01/21 06:50:16;;;;;;;0.20;0.07;;;6.60;99.90;;;;;;25588934;23;20245;-70
2022/01/21 07:00:20;;;;;;;0.20;0.10;;;6.70;99.90;;;;;;25585593;23;20233;-67
2022/01/21 07:10:27;;;;;;;0.20;0.10;;;6.80;99.90;;;;;;25584097;23;20502;-66
2022/01/21 07:20:31;;;;;;;0.20;0.17;;;6.50;99.90;;;;;;25588493;23;20525;-66
2022/01/21 07:30:36;;;;;;;3.93;1.90;;;6.60;99.90;;;;;;25587324;23;20202;-66
2022/01/21 07:40:40;;;;;;;0.20;0.10;;;6.80;99.90;;;;;;25588219;23;20273;-67
2022/01/21 07:50:45;;;;;;;0.20;0.10;;;6.90;99.90;;;;;;25585522;23;20256;-64
2022/01/21 08:00:49;;;;;;;0.20;0.20;;;6.80;99.90;;;;;;25585213;23;20699;-65
2022/01/21 08:10:55;;;;;;;0.27;0.27;;;6.80;99.90;;;;;;25585644;23;20261;-74
2022/01/21 08:20:59;;;;;;;0.20;0.20;;;6.80;99.90;;;;;;25584764;23;20257;-75
2022/01/21 08:31:04;;;;;;;0.20;0.10;;;6.90;99.90;;;;;;25587042;23;20253;-75
2022/01/21 08:41:08;;;;;;;0.20;0.10;;;7.10;99.90;;;;;;25585908;23;20581;-72
2022/01/21 08:51:19;;;;;;;0.90;0.80;;;7.20;99.90;;;;;;25588313;23;20795;-70
2022/01/21 09:01:22;;;;;;;0.20;0.10;;;7.40;99.90;;;;;;25586381;23;20750;-75
2022/01/21 09:11:28;;;;;;;1.30;1.20;;;7.40;99.90;;;;;;25586721;23;20189;-72
2022/01/21 09:21:35;;;;;;;0.20;0.10;;;7.40;99.90;;;;;;25584646;23;20194;-65
2022/01/21 09:31:40;;;;;;;0.60;0.33;;;7.50;99.90;;;;;;25585292;23;20233;-67
2022/01/21 09:42:01;;;;;;;0.87;0.87;;;7.60;99.90;;;;;;25585609;23;20177;-68
2022/01/21 15:10:29;;;;;;;0.20;0.10;;;13.60;99.90;;;;;;25586900;23;20285;-70
2022/01/21 15:20:35;;;;;;;0.20;0.10;;;13.10;99.90;;;;;;25559297;23;20217;-65
2022/01/21 15:30:40;;;;;;;0.20;0.10;;;14.20;99.90;;;;;;25584440;23;20170;-71
2022/01/21 15:40:44;;;;;;;0.20;0.20;;;13.70;99.90;;;;;;25582692;23;20228;-72
2022/01/21 15:50:50;;;;;;;0.20;0.10;;;12.60;99.90;;;;;;25580539;23;20162;-72
2022/01/21 16:00:54;;;;;;;0.20;0.10;;;11.70;99.90;;;;;;25580976;23;20228;-72
2022/01/21 16:10:59;;;;;;;0.20;0.10;;;10.80;99.90;;;;;;25580293;23;20205;-69
2022/01/21 16:21:05;;;;;;;0.20;0.10;;;10.30;99.90;;;;;;25581080;23;20216;-74
2022/01/21 16:31:10;;;;;;;0.20;0.10;;;10.20;99.90;;;;;;25581018;23;20201;-74
2022/01/21 16:41:16;;;;;;;0.20;0.20;;;10.30;99.90;;;;;;25581021;23;20183;-72
2022/01/21 16:51:21;;;;;;;0.20;0.10;;;10.10;99.90;;;;;;25552311;23;20178;-71
2022/01/21 17:01:27;;;;;;;0.20;0.10;;;10.00;99.90;;;;;;25577982;23;20230;-70
2022/01/21 17:11:35;;;;;;;1.03;1.03;;;10.10;99.90;;;;;;25580129;23;20154;-73
2022/01/21 17:21:39;;;;;;;0.20;0.10;;;9.90;99.90;;;;;;25576951;23;20252;-73
2022/01/21 17:31:45;;;;;;;0.20;0.10;;;9.80;99.90;;;;;;25576125;23;20178;-71
2022/01/21 17:41:49;;;;;;;0.20;0.10;;;9.60;99.90;;;;;;25576958;23;20197;-66
2022/01/21 17:51:56;;;;;;;1.80;1.70;;;9.70;99.90;;;;;;25576900;23;20209;-66
2022/01/21 18:02:00;;;;;;;0.20;0.10;;;9.70;99.90;;;;;;25576691;23;20289;-66
2022/01/21 18:12:07;;;;;;;1.70;1.13;;;9.60;99.90;;;;;;25577490;23;20177;-69
2022/01/21 18:22:13;;;;;;;1.37;1.27;;;9.50;99.90;;;;;;25577851;23;20174;-70
2022/01/21 18:32:19;;;;;;;0.20;0.10;;;9.30;99.90;;;;;;25580701;23;20193;-70
2022/01/21 18:42:30;;;;;;;17.07;10.40;;;9.00;99.90;;;;;;25559210;23;20663;-69
2022/01/21 18:52:36;;;;;;;0.20;0.10;;;9.10;99.90;;;;;;25586342;23;20534;-71
2022/01/21 19:02:42;;;;;;;0.20;0.07;;;8.90;99.90;;;;;;25586271;23;20293;-71
2022/01/21 19:12:48;;;;;;;0.20;0.10;;;8.60;99.90;;;;;;25584889;23;20436;-64
2022/01/21 19:23:00;;;;;;;0.20;0.10;;;8.30;99.90;;;;;;25558249;23;20262;-70
2022/01/21 19:33:06;;;;;;;2.53;1.17;;;8.30;99.90;;;;;;25583270;23;20216;-70
2022/01/21 19:43:09;;;;;;;2.13;0.87;;;8.30;99.90;;;;;;25583593;23;20237;-66
2022/01/21 19:53:15;;;;;;;8.43;2.10;;;8.30;99.90;;;;;;25554248;23;20201;-69
2022/01/21 20:13:50;;;;;;;0.20;0.10;;;8.20;99.90;;;;;;25580957;23;20281;-66
2022/01/21 20:23:56;;;;;;;0.50;0.50;;;8.10;99.90;;;;;;25581615;23;20567;-64
2022/01/21 20:34:02;;;;;;;0.20;0.00;;;7.90;99.90;;;;;;25581191;23;20190;-65
2022/01/21 20:44:06;;;;;;;3.40;2.13;;;7.70;99.90;;;;;;25554260;23;20245;-67
2022/01/21 20:54:12;;;;;;;0.20;0.20;;;7.40;99.90;;;;;;25580897;23;20190;-66
2022/01/21 21:04:16;;;;;;;0.37;0.37;;;7.30;99.90;;;;;;25581977;23;20206;-65
2022/01/21 21:14:29;;;;;;;1.33;1.03;;;7.20;99.90;;;;;;25556017;23;20196;-65
2022/01/21 21:24:35;;;;;;;0.20;0.10;;;6.90;99.90;;;;;;25555458;23;20253;-65
2022/01/21 23:08:00;;;;;;;0.20;0.10;;;6.40;99.90;;;;;;25578471;23;20679;-69
2022/01/21 23:18:11;;;;;;;0.20;0.10;;;6.30;99.90;;;;;;25582533;23;20221;-70
2022/01/21 23:28:15;;;;;;;0.20;0.10;;;6.40;99.90;;;;;;25559158;23;20276;-70
2022/01/21 23:38:30;;;;;;;0.57;0.57;;;6.30;99.90;;;;;;25585393;23;20281;-70
2022/01/21 23:48:34;;;;;;;0.20;0.00;;;6.10;99.90;;;;;;25586248;23;20177;-66
2022/01/21 23:58:39;;;;;;;0.20;0.10;;;6.10;99.90;;;;;;25582836;23;20252;-64
